createdAt,value
2022-08-31T00:00:14.684Z,6.22
2022-08-31T00:02:59.900Z,7.35
2022-08-31T00:05:26.829Z,5.72
2022-08-31T00:07:55.584Z,5.78
2022-08-31T00:10:32.966Z,5.50
2022-08-31T00:13:07.495Z,4.45
2022-08-31T00:15:35.900Z,6.50
2022-08-31T00:18:04.674Z,5.07
2022-08-31T00:20:33.280Z,5.65
2022-08-31T00:23:03.959Z,5.20
2022-08-31T00:25:31.510Z,7.53
2022-08-31T00:27:58.371Z,7.57
2022-08-31T00:30:25.489Z,7.50
2022-08-31T00:32:52.442Z,5.32
2022-08-31T00:35:19.433Z,5.05
2022-08-31T00:37:46.353Z,4.75
2022-08-31T00:40:14.205Z,5.63
2022-08-31T00:42:41.830Z,6.57
2022-08-31T00:45:10.841Z,5.18
2022-08-31T00:47:38.280Z,4.80
2022-08-31T00:50:10.656Z,6.88
2022-08-31T00:52:42.017Z,7.28
2022-08-31T00:55:14.643Z,5.40
2022-08-31T00:57:48.027Z,8.85
2022-08-31T01:00:21.074Z,5.30
2022-08-31T01:02:48.726Z,6.10
2022-08-31T01:05:17.091Z,5.70
2022-08-31T01:07:47.971Z,6.35
2022-08-31T01:10:21.387Z,5.07
2022-08-31T01:12:59.333Z,7.72
2022-08-31T01:15:28.664Z,3.63
2022-08-31T01:17:59.114Z,6.65
2022-08-31T01:20:49.150Z,5.18
2022-08-31T01:23:34.422Z,4.75
2022-08-31T01:26:04.483Z,6.40
2022-08-31T01:28:31.735Z,5.82
2022-08-31T01:31:06.907Z,4.88
2022-08-31T01:33:38.227Z,6.32
2022-08-31T01:36:11.107Z,5.78
2022-08-31T01:38:42.093Z,6.15
2022-08-31T01:41:09.833Z,6.90
2022-08-31T01:43:40.105Z,6.72
2022-08-31T01:46:10.555Z,6.10
2022-08-31T01:48:41.093Z,6.03
2022-08-31T01:51:10.707Z,7.53
2022-08-31T01:56:20.309Z,4.78
2022-08-31T01:58:47.342Z,5.00
2022-08-31T02:01:36.120Z,6.80
2022-08-31T02:04:06.267Z,5.53
2022-08-31T02:06:34.698Z,5.50
2022-08-31T02:09:05.072Z,5.63
2022-08-31T02:14:00.345Z,6.25
2022-08-31T02:16:27.762Z,5.55
2022-08-31T02:18:55.052Z,6.70
2022-08-31T02:21:22.458Z,5.90
2022-08-31T02:23:49.758Z,4.22
2022-08-31T02:26:17.416Z,7.63
2022-08-31T02:28:47.139Z,5.63
2022-08-31T02:31:14.321Z,7.10
2022-08-31T02:33:49.136Z,4.68
2022-08-31T02:36:16.401Z,5.05
2022-08-31T02:38:44.120Z,5.10
2022-08-31T02:41:11.335Z,6.03
2022-08-31T02:43:40.659Z,4.97
2022-08-31T02:46:09.110Z,5.97
2022-08-31T02:48:41.977Z,4.80
2022-08-31T02:51:13.585Z,5.53
2022-08-31T02:53:40.733Z,5.95
2022-08-31T02:56:08.393Z,6.80
2022-08-31T02:58:37.093Z,8.07
2022-08-31T03:01:04.769Z,5.65
2022-08-31T03:03:33.739Z,4.30
2022-08-31T03:06:01.622Z,5.30
2022-08-31T03:08:31.009Z,5.07
2022-08-31T03:10:59.436Z,4.20
2022-08-31T03:13:26.475Z,6.38
2022-08-31T03:15:53.535Z,5.90
2022-08-31T03:18:22.802Z,6.95
2022-08-31T03:20:50.889Z,5.03
2022-08-31T03:23:17.828Z,6.80
2022-08-31T03:25:46.946Z,6.53
2022-08-31T03:28:14.525Z,4.20
2022-08-31T03:30:46.043Z,4.47
2022-08-31T03:33:14.243Z,10.98
2022-08-31T03:35:46.266Z,7.03
2022-08-31T03:38:16.189Z,6.10
2022-08-31T03:40:44.924Z,6.88
2022-08-31T03:43:13.194Z,6.22
2022-08-31T03:45:42.822Z,6.00
2022-08-31T03:48:13.102Z,6.82
2022-08-31T03:50:43.730Z,4.93
2022-08-31T03:53:22.507Z,5.88
2022-08-31T03:55:51.855Z,5.13
2022-08-31T03:58:18.974Z,4.93
2022-08-31T04:00:46.289Z,7.22
2022-08-31T04:03:31.239Z,4.65
2022-08-31T04:06:16.555Z,6.30
2022-08-31T04:09:04.230Z,8.93
2022-08-31T04:12:00.575Z,5.78
2022-08-31T04:14:46.411Z,4.93
2022-08-31T04:17:31.661Z,5.10
2022-08-31T04:20:18.500Z,6.93
2022-08-31T04:22:51.245Z,7.22
2022-08-31T04:25:40.176Z,7.20
2022-08-31T04:30:39.760Z,8.30
2022-08-31T04:33:07.713Z,6.45
2022-08-31T04:35:35.406Z,9.60
2022-08-31T04:38:02.585Z,7.00
2022-08-31T04:40:29.752Z,7.20
2022-08-31T04:42:59.941Z,5.38
2022-08-31T04:45:27.231Z,5.88
2022-08-31T04:47:54.107Z,6.13
2022-08-31T04:50:21.483Z,10.63
2022-08-31T04:53:05.504Z,5.40
2022-08-31T04:55:33.052Z,6.93
2022-08-31T04:58:00.240Z,9.35
2022-08-31T05:00:27.882Z,9.20
2022-08-31T05:03:20.279Z,8.30
2022-08-31T05:05:52.516Z,7.38
2022-08-31T05:08:20.583Z,5.85
2022-08-31T05:10:48.697Z,9.07
2022-08-31T05:13:16.086Z,12.43
2022-08-31T05:15:44.158Z,8.38
2022-08-31T05:18:14.473Z,8.07
2022-08-31T05:20:48.491Z,10.45
2022-08-31T05:23:15.421Z,7.88
2022-08-31T05:25:43.820Z,6.30
2022-08-31T05:28:11.053Z,9.57
2022-08-31T05:30:38.371Z,7.82
2022-08-31T05:33:08.739Z,5.97
2022-08-31T05:35:36.361Z,11.52
2022-08-31T05:38:03.602Z,6.15
2022-08-31T05:40:30.984Z,7.30
2022-08-31T05:42:59.673Z,7.75
2022-08-31T05:45:26.990Z,6.93
2022-08-31T05:47:54.479Z,5.90
2022-08-31T05:50:21.440Z,6.40
2022-08-31T05:52:49.564Z,7.43
2022-08-31T05:55:16.564Z,6.47
2022-08-31T05:57:43.542Z,5.78
2022-08-31T06:00:11.238Z,7.45
2022-08-31T06:02:44.267Z,6.05
2022-08-31T06:05:13.680Z,10.30
2022-08-31T06:07:41.932Z,6.63
2022-08-31T06:10:11.962Z,6.78
2022-08-31T06:12:42.589Z,6.28
2022-08-31T06:15:11.481Z,8.63
2022-08-31T06:17:38.449Z,6.85
2022-08-31T06:20:07.310Z,7.22
2022-08-31T06:22:36.052Z,7.82
2022-08-31T06:25:07.230Z,6.70
2022-08-31T06:27:38.967Z,7.22
2022-08-31T06:30:08.109Z,8.07
2022-08-31T06:32:35.344Z,6.75
2022-08-31T06:35:05.023Z,6.63
2022-08-31T06:37:45.478Z,9.00
2022-08-31T06:40:41.869Z,7.75
2022-08-31T06:43:28.739Z,6.90
2022-08-31T06:46:02.439Z,6.53
2022-08-31T06:48:32.214Z,6.88
2022-08-31T06:51:00.224Z,7.68
2022-08-31T06:53:28.034Z,10.68
2022-08-31T06:56:19.710Z,7.40
2022-08-31T06:59:14.040Z,9.15
2022-08-31T07:01:58.838Z,7.07
2022-08-31T07:04:38.612Z,7.70
2022-08-31T07:07:09.133Z,9.38
2022-08-31T07:12:05.422Z,9.10
2022-08-31T07:14:32.774Z,7.25
2022-08-31T07:17:03.256Z,8.68
2022-08-31T07:19:32.195Z,8.93
2022-08-31T07:22:04.772Z,9.43
2022-08-31T07:24:35.341Z,8.68
2022-08-31T07:27:13.062Z,8.18
2022-08-31T07:29:46.628Z,8.57
2022-08-31T07:32:15.985Z,8.63
2022-08-31T07:34:44.451Z,8.18
2022-08-31T07:37:42.272Z,7.35
2022-08-31T07:40:29.041Z,9.38
2022-08-31T07:42:57.710Z,8.25
2022-08-31T07:45:29.129Z,7.90
2022-08-31T07:47:59.990Z,8.10
2022-08-31T07:50:38.346Z,8.10
2022-08-31T07:53:22.552Z,6.53
2022-08-31T07:56:12.576Z,7.38
2022-08-31T07:58:43.163Z,7.03
2022-08-31T08:01:11.885Z,6.55
2022-08-31T08:03:44.276Z,7.53
2022-08-31T08:06:32.470Z,10.25
2022-08-31T08:09:27.103Z,7.72
2022-08-31T08:12:07.565Z,8.13
2022-08-31T08:14:43.656Z,7.47
2022-08-31T08:17:33.000Z,9.75
2022-08-31T08:20:35.245Z,9.82
2022-08-31T08:23:13.818Z,9.20
2022-08-31T08:26:09.724Z,12.05
2022-08-31T08:29:21.192Z,12.40
2022-08-31T08:31:53.210Z,9.85
2022-08-31T08:34:27.086Z,11.07
2022-08-31T08:37:01.805Z,11.40
2022-08-31T08:39:29.323Z,10.05
2022-08-31T08:42:12.996Z,10.82
2022-08-31T08:44:41.392Z,10.32
2022-08-31T08:47:15.583Z,11.18
2022-08-31T08:49:54.802Z,12.77
2022-08-31T08:52:32.238Z,17.05
2022-08-31T08:55:05.475Z,13.27
2022-08-31T08:57:39.818Z,11.75
2022-08-31T09:00:11.476Z,10.55
2022-08-31T09:02:58.642Z,12.82
2022-08-31T09:05:55.393Z,13.18
2022-08-31T09:08:54.960Z,11.60
2022-08-31T09:11:42.288Z,12.18
2022-08-31T09:14:19.331Z,14.60
2022-08-31T09:17:00.442Z,13.00
2022-08-31T09:19:27.827Z,12.27
2022-08-31T09:21:58.634Z,14.63
2022-08-31T09:24:30.381Z,12.43
2022-08-31T09:27:22.535Z,11.25
2022-08-31T09:29:56.798Z,19.23
2022-08-31T09:32:31.838Z,10.57
2022-08-31T09:35:22.291Z,10.77
2022-08-31T09:38:02.299Z,11.82
2022-08-31T09:40:37.012Z,9.90
2022-08-31T09:51:24.709Z,11.30
